createdAt,value
2018-04-24T00:00:08.812Z,17.62
2018-04-24T00:01:08.826Z,17.70
2018-04-24T00:02:08.858Z,17.74
2018-04-24T00:03:08.872Z,17.78
2018-04-24T00:04:08.892Z,17.79
2018-04-24T00:05:08.922Z,17.79
2018-04-24T00:06:08.958Z,17.79
2018-04-24T00:07:08.970Z,17.82
2018-04-24T00:08:08.991Z,17.78
2018-04-24T00:09:09.022Z,17.50
2018-04-24T00:10:09.036Z,17.48
2018-04-24T00:11:09.064Z,17.55
2018-04-24T00:12:09.091Z,17.41
2018-04-24T00:13:09.110Z,17.53
2018-04-24T00:14:09.138Z,17.70
2018-04-24T00:15:09.156Z,17.78
2018-04-24T00:16:09.174Z,17.82
2018-04-24T00:17:09.204Z,17.76
2018-04-24T00:18:09.231Z,17.69
2018-04-24T00:19:09.249Z,17.79
2018-04-24T00:20:09.277Z,17.87
2018-04-24T00:21:09.314Z,17.78
2018-04-24T00:22:09.327Z,17.84
2018-04-24T00:23:09.343Z,17.74
2018-04-24T00:24:09.376Z,17.57
2018-04-24T00:25:09.398Z,17.41
2018-04-24T00:26:09.417Z,17.40
2018-04-24T00:27:09.441Z,17.40
2018-04-24T00:28:09.468Z,17.41
2018-04-24T00:29:09.483Z,17.23
2018-04-24T00:30:09.517Z,17.30
2018-04-24T00:31:09.540Z,17.55
2018-04-24T00:32:09.555Z,17.63
2018-04-24T00:33:09.581Z,17.55
2018-04-24T00:34:09.610Z,17.48
2018-04-24T00:35:09.634Z,17.20
2018-04-24T00:36:09.652Z,17.00
2018-04-24T00:37:09.688Z,17.17
2018-04-24T00:38:09.700Z,17.14
2018-04-24T00:39:09.726Z,17.08
2018-04-24T00:40:09.755Z,17.13
2018-04-24T00:41:09.771Z,17.17
2018-04-24T00:42:09.792Z,17.22
2018-04-24T00:43:09.844Z,17.28
2018-04-24T00:44:09.843Z,17.44
2018-04-24T00:45:09.867Z,17.35
2018-04-24T00:46:09.910Z,17.11
2018-04-24T00:47:09.918Z,17.07
2018-04-24T00:48:09.943Z,17.00
2018-04-24T00:49:09.965Z,16.90
2018-04-24T00:50:09.987Z,16.96
2018-04-24T00:51:10.012Z,16.88
2018-04-24T00:52:10.035Z,16.98
2018-04-24T00:53:10.056Z,16.99
2018-04-24T00:54:10.096Z,16.93
2018-04-24T00:55:10.113Z,16.96
2018-04-24T00:56:10.132Z,16.93
2018-04-24T00:57:10.156Z,16.93
2018-04-24T00:58:10.174Z,16.81
2018-04-24T00:59:10.200Z,16.93
2018-04-24T01:00:10.219Z,16.88
2018-04-24T01:01:10.252Z,16.88
2018-04-24T01:02:10.275Z,16.89
2018-04-24T01:03:10.294Z,16.62
2018-04-24T01:04:10.315Z,16.83
2018-04-24T01:05:10.344Z,16.85
2018-04-24T01:06:10.363Z,16.74
2018-04-24T01:07:10.392Z,16.48
2018-04-24T01:08:10.430Z,16.48
2018-04-24T01:09:10.433Z,16.48
2018-04-24T01:10:10.458Z,16.52
2018-04-24T01:11:10.482Z,16.68
2018-04-24T01:12:10.504Z,16.80
2018-04-24T01:13:10.533Z,16.78
2018-04-24T01:14:10.556Z,16.71
2018-04-24T01:15:10.585Z,16.56
2018-04-24T01:16:10.598Z,16.67
2018-04-24T01:17:10.624Z,16.44
2018-04-24T01:18:10.650Z,16.49
2018-04-24T01:19:10.667Z,16.44
2018-04-24T01:20:10.700Z,16.58
2018-04-24T01:21:10.729Z,16.45
2018-04-24T01:22:10.739Z,16.62
2018-04-24T01:23:10.768Z,16.40
2018-04-24T01:24:10.790Z,16.55
2018-04-24T01:25:10.810Z,16.70
2018-04-24T01:26:10.845Z,16.73
2018-04-24T01:27:10.858Z,16.48
2018-04-24T01:28:10.882Z,16.49
2018-04-24T01:29:10.935Z,16.68
2018-04-24T01:30:10.932Z,16.52
2018-04-24T01:31:10.956Z,16.15
2018-04-24T01:32:10.977Z,16.23
2018-04-24T01:33:11.004Z,16.22
2018-04-24T01:34:11.023Z,16.27
2018-04-24T01:35:11.059Z,16.48
2018-04-24T01:36:11.072Z,16.55
2018-04-24T01:37:11.093Z,16.50
2018-04-24T01:38:11.114Z,16.25
2018-04-24T01:39:11.138Z,16.09
2018-04-24T01:40:11.166Z,16.41
2018-04-24T01:41:11.186Z,16.38
2018-04-24T01:42:11.207Z,16.22
2018-04-24T01:43:11.237Z,16.33
2018-04-24T01:44:11.258Z,16.15
2018-04-24T01:45:11.295Z,16.12
2018-04-24T01:46:11.302Z,16.30
2018-04-24T01:47:11.328Z,16.38
2018-04-24T01:48:11.349Z,16.25
2018-04-24T01:49:11.375Z,16.15
2018-04-24T01:50:11.400Z,16.11
2018-04-24T01:51:11.428Z,16.22
2018-04-24T01:52:11.449Z,16.11
2018-04-24T01:53:11.472Z,16.03
2018-04-24T01:54:11.487Z,16.06
2018-04-24T01:55:11.506Z,16.31
2018-04-24T01:56:11.537Z,16.30
2018-04-24T01:57:11.558Z,16.48
2018-04-24T01:58:11.581Z,16.50
2018-04-24T01:59:11.606Z,16.27
2018-04-24T02:00:11.626Z,16.27
2018-04-24T02:01:11.644Z,16.07
2018-04-24T02:02:11.676Z,16.23
2018-04-24T02:03:11.700Z,16.22
2018-04-24T02:04:11.717Z,16.33
2018-04-24T02:05:11.753Z,16.40
2018-04-24T02:06:11.773Z,16.25
2018-04-24T02:07:11.785Z,15.93
2018-04-24T02:08:11.813Z,16.07
2018-04-24T02:09:11.850Z,16.37
2018-04-24T02:10:11.857Z,16.07
2018-04-24T02:11:11.883Z,15.97
2018-04-24T02:12:11.906Z,15.94
2018-04-24T02:13:11.938Z,15.86
2018-04-24T02:14:11.951Z,15.82
2018-04-24T02:15:11.974Z,15.64
2018-04-24T02:16:12.000Z,15.78
2018-04-24T02:17:12.022Z,15.76
2018-04-24T02:18:12.046Z,15.75
2018-04-24T02:19:12.077Z,15.59
2018-04-24T02:20:12.085Z,15.79
2018-04-24T02:21:12.134Z,15.82
2018-04-24T02:22:12.142Z,15.76
2018-04-24T02:23:12.159Z,15.85
2018-04-24T02:24:12.185Z,15.81
2018-04-24T02:25:12.199Z,15.93
2018-04-24T02:26:12.227Z,16.07
2018-04-24T02:27:12.251Z,16.22
2018-04-24T02:28:12.275Z,16.41
2018-04-24T02:29:12.299Z,16.31
2018-04-24T02:30:12.317Z,16.40
2018-04-24T02:31:12.343Z,16.18
2018-04-24T02:32:12.370Z,16.09
2018-04-24T02:33:12.391Z,15.78
2018-04-24T02:34:12.417Z,15.84
2018-04-24T02:35:12.442Z,16.09
2018-04-24T02:36:12.459Z,15.93
2018-04-24T02:37:12.477Z,15.78
2018-04-24T02:38:12.503Z,15.93
2018-04-24T02:39:12.528Z,16.06
2018-04-24T02:40:12.556Z,16.11
2018-04-24T02:41:12.574Z,16.12
2018-04-24T02:42:12.594Z,16.14
2018-04-24T02:43:12.619Z,15.94
2018-04-24T02:44:12.654Z,15.97
2018-04-24T02:45:12.671Z,15.89
2018-04-24T02:46:12.687Z,15.84
2018-04-24T02:47:12.740Z,15.89
2018-04-24T02:48:12.741Z,15.94
2018-04-24T02:49:12.754Z,15.99
2018-04-24T02:50:12.776Z,16.23
2018-04-24T02:51:12.800Z,16.04
2018-04-24T02:52:12.829Z,16.03
2018-04-24T02:53:12.849Z,15.81
2018-04-24T02:54:12.874Z,15.92
2018-04-24T02:55:12.912Z,15.68
2018-04-24T02:56:12.914Z,15.78
2018-04-24T02:57:12.942Z,15.75
2018-04-24T02:58:12.962Z,15.82
2018-04-24T02:59:12.986Z,15.81
2018-04-24T03:00:13.009Z,15.82
2018-04-24T03:01:13.040Z,15.84
2018-04-24T03:02:13.066Z,15.89
2018-04-24T03:03:13.077Z,15.82
2018-04-24T03:04:13.098Z,15.76
2018-04-24T03:05:13.125Z,15.67
2018-04-24T03:06:13.150Z,15.67
2018-04-24T03:07:13.171Z,15.75
2018-04-24T03:08:13.191Z,15.76
2018-04-24T03:09:13.210Z,15.68
2018-04-24T03:10:13.237Z,15.85
2018-04-24T03:11:13.259Z,15.93
2018-04-24T03:12:13.283Z,15.89
2018-04-24T03:13:13.305Z,15.72
2018-04-24T03:14:13.328Z,15.81
2018-04-24T03:15:13.352Z,15.79
2018-04-24T03:16:13.374Z,15.49
2018-04-24T03:17:13.405Z,15.51
2018-04-24T03:18:13.423Z,15.48
2018-04-24T03:19:13.441Z,15.30
2018-04-24T03:20:13.465Z,15.63
2018-04-24T03:21:13.500Z,15.96
2018-04-24T03:22:13.511Z,15.92
2018-04-24T03:23:13.533Z,16.26
2018-04-24T03:24:13.590Z,16.42
2018-04-24T03:25:13.591Z,16.56
2018-04-24T03:26:13.601Z,16.44
2018-04-24T03:27:13.625Z,16.45
2018-04-24T03:28:13.650Z,16.33
2018-04-24T03:29:13.672Z,16.33
2018-04-24T03:30:13.692Z,16.25
2018-04-24T03:31:13.718Z,15.89
2018-04-24T03:32:13.737Z,15.89
2018-04-24T03:33:13.764Z,15.75
2018-04-24T03:34:13.783Z,15.59
2018-04-24T03:35:13.805Z,15.45
2018-04-24T03:36:13.827Z,15.42
2018-04-24T03:37:13.854Z,15.64
2018-04-24T03:38:13.883Z,15.33
2018-04-24T03:39:13.900Z,15.49
2018-04-24T03:40:13.921Z,15.49
2018-04-24T03:41:13.940Z,15.52
2018-04-24T03:42:13.965Z,15.49
2018-04-24T03:43:13.993Z,15.52
2018-04-24T03:44:14.013Z,15.51
2018-04-24T03:45:14.037Z,15.42
2018-04-24T03:46:14.057Z,15.54
2018-04-24T03:47:14.080Z,15.59
2018-04-24T03:48:14.101Z,15.48
2018-04-24T03:49:14.140Z,15.15
2018-04-24T03:50:14.156Z,15.36
2018-04-24T03:51:14.171Z,15.39
2018-04-24T03:52:14.198Z,15.63
2018-04-24T03:53:14.219Z,15.74
2018-04-24T03:54:14.233Z,15.75
2018-04-24T03:55:14.266Z,15.78
2018-04-24T03:56:14.291Z,15.51
2018-04-24T03:57:14.346Z,15.48
2018-04-24T03:58:14.328Z,15.57
2018-04-24T03:59:14.351Z,15.28
2018-04-24T04:00:14.377Z,15.36
2018-04-24T04:01:14.450Z,15.42
2018-04-24T04:02:14.422Z,15.48
2018-04-24T04:03:14.445Z,15.60
2018-04-24T04:04:14.469Z,15.79
2018-04-24T04:05:14.488Z,15.81
2018-04-24T04:06:14.513Z,15.82
2018-04-24T04:07:14.528Z,15.82
2018-04-24T04:08:14.560Z,15.61
2018-04-24T04:09:14.577Z,15.51
2018-04-24T04:10:14.607Z,15.42
2018-04-24T04:11:14.625Z,15.48
2018-04-24T04:12:14.654Z,15.59
2018-04-24T04:13:14.665Z,15.97
2018-04-24T04:14:14.689Z,16.23
2018-04-24T04:15:14.711Z,16.26
2018-04-24T04:16:14.734Z,16.09
2018-04-24T04:17:14.763Z,15.85
2018-04-24T04:18:14.788Z,15.81
2018-04-24T04:19:14.802Z,16.07
2018-04-24T04:20:14.822Z,16.03
2018-04-24T04:21:14.865Z,15.66
2018-04-24T04:22:14.878Z,15.60
2018-04-24T04:23:14.900Z,15.43
2018-04-24T04:24:14.923Z,15.70
2018-04-24T04:25:14.953Z,15.68
2018-04-24T04:26:14.961Z,15.39
2018-04-24T04:27:14.984Z,15.67
2018-04-24T04:28:15.009Z,15.82
2018-04-24T04:29:15.034Z,15.84
2018-04-24T04:30:15.055Z,15.84
2018-04-24T04:31:15.077Z,15.72
2018-04-24T04:32:15.097Z,15.68
2018-04-24T04:33:15.116Z,15.52
2018-04-24T04:34:15.142Z,15.60
2018-04-24T04:35:15.166Z,15.57
2018-04-24T04:36:15.194Z,15.45
2018-04-24T04:37:15.216Z,15.46
2018-04-24T04:38:15.230Z,15.38
2018-04-24T04:39:15.259Z,15.56
2018-04-24T04:40:15.282Z,15.60
2018-04-24T04:41:15.309Z,15.45
2018-04-24T04:42:15.327Z,15.57
2018-04-24T04:43:15.354Z,15.49
2018-04-24T04:44:15.382Z,15.59
2018-04-24T04:45:15.396Z,15.66
2018-04-24T04:46:15.417Z,15.63
2018-04-24T04:47:15.439Z,15.76
2018-04-24T04:48:15.464Z,15.60
2018-04-24T04:49:15.523Z,15.57
2018-04-24T04:50:15.555Z,15.57
2018-04-24T04:51:15.531Z,15.54
2018-04-24T04:52:15.557Z,15.86
2018-04-24T04:53:15.588Z,16.01
2018-04-24T04:54:15.593Z,16.01
2018-04-24T04:55:15.619Z,16.01
2018-04-24T04:56:15.640Z,16.26
2018-04-24T04:57:15.660Z,16.30
2018-04-24T04:58:15.696Z,16.33
2018-04-24T04:59:15.715Z,16.48
2018-04-24T05:00:15.730Z,16.52
2018-04-24T05:01:15.766Z,16.58
2018-04-24T05:02:15.789Z,16.50
2018-04-24T05:03:15.805Z,16.52
2018-04-24T05:04:15.829Z,16.49
2018-04-24T05:05:15.918Z,16.34
2018-04-24T05:06:15.867Z,16.38
2018-04-24T05:07:15.890Z,16.50
2018-04-24T05:08:15.916Z,16.53
2018-04-24T05:09:15.938Z,16.35
2018-04-24T05:10:15.960Z,16.04
2018-04-24T05:11:15.984Z,16.11
2018-04-24T05:12:16.077Z,15.85
2018-04-24T05:13:16.037Z,15.94
2018-04-24T05:14:16.063Z,15.92
2018-04-24T05:15:16.080Z,15.88
2018-04-24T05:16:16.097Z,15.56
2018-04-24T05:17:16.123Z,15.51
2018-04-24T05:18:16.137Z,15.49
2018-04-24T05:19:16.159Z,15.66
2018-04-24T05:20:16.218Z,15.78
2018-04-24T05:21:16.218Z,15.72
2018-04-24T05:22:16.230Z,15.70
2018-04-24T05:23:16.261Z,15.72
2018-04-24T05:24:16.277Z,15.88
2018-04-24T05:25:16.316Z,15.96
2018-04-24T05:26:16.324Z,16.11
2018-04-24T05:27:16.344Z,15.94
2018-04-24T05:28:16.375Z,16.03
2018-04-24T05:29:16.390Z,16.09
2018-04-24T05:30:16.409Z,16.20
2018-04-24T05:31:16.439Z,16.18
2018-04-24T05:32:16.506Z,16.38
2018-04-24T05:33:16.499Z,16.26
2018-04-24T05:34:16.502Z,16.26
2018-04-24T05:35:16.532Z,16.20
2018-04-24T05:36:16.554Z,16.18
2018-04-24T05:37:16.579Z,16.20
2018-04-24T05:38:16.598Z,16.23
2018-04-24T05:39:16.616Z,16.33
2018-04-24T05:40:16.646Z,16.38
2018-04-24T05:41:16.670Z,16.30
2018-04-24T05:42:16.692Z,16.26
2018-04-24T05:43:16.715Z,16.35
2018-04-24T05:44:16.738Z,16.22
2018-04-24T05:45:16.770Z,16.34
2018-04-24T05:46:16.772Z,16.41
2018-04-24T05:47:16.802Z,16.50
2018-04-24T05:48:16.827Z,16.23
2018-04-24T05:49:16.844Z,16.41
2018-04-24T05:50:16.875Z,16.20
2018-04-24T05:51:16.896Z,16.30
2018-04-24T05:52:16.972Z,16.27
2018-04-24T05:53:16.939Z,16.27
2018-04-24T05:54:16.962Z,16.27
2018-04-24T05:55:16.986Z,16.20
2018-04-24T05:56:17.007Z,16.27
2018-04-24T05:57:17.037Z,16.38
2018-04-24T05:58:17.061Z,16.50
2018-04-24T05:59:17.080Z,16.53
2018-04-24T06:00:17.095Z,16.33
2018-04-24T06:01:17.128Z,16.18
2018-04-24T06:02:17.143Z,15.92
2018-04-24T06:03:17.168Z,15.92
2018-04-24T06:04:17.204Z,16.12
2018-04-24T06:05:17.210Z,16.07
2018-04-24T06:06:17.234Z,16.22
2018-04-24T06:07:17.260Z,16.45
2018-04-24T06:08:17.378Z,16.53
2018-04-24T06:09:17.302Z,16.53
2018-04-24T06:10:17.335Z,16.48
2018-04-24T06:11:17.366Z,16.50
2018-04-24T06:12:17.371Z,16.49
2018-04-24T06:13:17.393Z,16.53
2018-04-24T06:14:17.424Z,16.68
2018-04-24T06:15:17.443Z,16.85
2018-04-24T06:16:17.466Z,16.88
2018-04-24T06:17:17.485Z,16.73
2018-04-24T06:18:17.511Z,16.80
2018-04-24T06:19:17.536Z,16.50
2018-04-24T06:20:17.561Z,16.44
2018-04-24T06:21:17.579Z,16.56
2018-04-24T06:22:17.607Z,15.92
2018-04-24T06:23:17.629Z,16.03
2018-04-24T06:24:17.652Z,16.23
2018-04-24T06:25:17.669Z,16.44
2018-04-24T06:26:17.697Z,16.52
2018-04-24T06:27:17.724Z,16.41
2018-04-24T06:28:17.754Z,16.30
2018-04-24T06:29:17.807Z,16.56
2018-04-24T06:30:17.798Z,16.81
2018-04-24T06:31:17.816Z,16.81
2018-04-24T06:32:17.900Z,16.58
2018-04-24T06:33:17.851Z,16.59
2018-04-24T06:34:17.890Z,16.83
2018-04-24T06:35:17.902Z,16.78
2018-04-24T06:36:17.929Z,16.60
2018-04-24T06:37:17.946Z,16.65
2018-04-24T06:38:17.972Z,16.73
2018-04-24T06:39:17.999Z,16.30
2018-04-24T06:40:18.029Z,16.14
2018-04-24T06:41:18.042Z,16.22
2018-04-24T06:42:18.086Z,16.11
2018-04-24T06:43:18.090Z,16.16
2018-04-24T06:44:18.163Z,16.34
2018-04-24T06:45:18.136Z,16.41
2018-04-24T06:46:18.164Z,16.60
2018-04-24T06:47:18.185Z,16.70
2018-04-24T06:48:18.203Z,16.62
2018-04-24T06:49:18.234Z,16.58
2018-04-24T06:50:18.257Z,16.81
2018-04-24T06:51:18.276Z,16.90
2018-04-24T06:52:18.299Z,17.04
2018-04-24T06:53:18.326Z,17.13
2018-04-24T06:54:18.444Z,17.18
2018-04-24T06:55:18.377Z,17.13
2018-04-24T06:56:18.408Z,17.11
2018-04-24T06:57:18.418Z,16.56
2018-04-24T06:58:18.437Z,16.70
2018-04-24T06:59:18.473Z,16.71
2018-04-24T07:00:18.482Z,16.45
2018-04-24T07:01:18.512Z,16.70
2018-04-24T07:02:18.544Z,16.95
2018-04-24T07:03:18.593Z,16.96
2018-04-24T07:04:18.579Z,17.03
2018-04-24T07:05:18.619Z,17.06
2018-04-24T07:06:18.645Z,17.13
2018-04-24T07:07:18.643Z,16.90
2018-04-24T07:08:18.670Z,16.90
2018-04-24T07:09:18.693Z,16.92
2018-04-24T07:10:18.730Z,16.96
2018-04-24T07:11:18.747Z,17.13
2018-04-24T07:12:18.770Z,17.11
2018-04-24T07:13:18.786Z,17.17
2018-04-24T07:14:18.813Z,16.99
2018-04-24T07:15:18.847Z,16.99
2018-04-24T07:16:18.865Z,16.93
2018-04-24T07:17:18.893Z,16.75
2018-04-24T07:18:18.908Z,17.00
2018-04-24T07:19:18.937Z,17.13
2018-04-24T07:20:18.953Z,17.30
2018-04-24T07:21:18.984Z,17.50
2018-04-24T07:22:19.062Z,17.44
2018-04-24T07:23:19.020Z,17.51
2018-04-24T07:24:19.046Z,17.64
2018-04-24T07:25:19.080Z,17.53
2018-04-24T07:26:19.090Z,17.57
2018-04-24T07:27:19.116Z,17.55
2018-04-24T07:28:19.138Z,17.47
2018-04-24T07:29:19.162Z,17.54
2018-04-24T07:30:19.196Z,17.70
2018-04-24T07:31:19.292Z,17.59
2018-04-24T07:32:19.249Z,17.44
2018-04-24T07:33:19.257Z,17.53
2018-04-24T07:34:19.286Z,17.59
2018-04-24T07:35:19.308Z,17.63
2018-04-24T07:36:19.330Z,17.64
2018-04-24T07:37:19.357Z,17.43
2018-04-24T07:38:19.376Z,17.50
2018-04-24T07:39:19.401Z,17.38
2018-04-24T07:40:19.423Z,17.50
2018-04-24T07:41:19.452Z,17.57
2018-04-24T07:42:19.475Z,17.35
2018-04-24T07:43:19.502Z,17.26
2018-04-24T07:44:19.520Z,17.43
2018-04-24T07:45:19.543Z,17.14
2018-04-24T07:46:19.569Z,17.00
2018-04-24T07:47:19.604Z,17.30
2018-04-24T07:48:19.617Z,17.25
2018-04-24T07:49:19.634Z,17.41
2018-04-24T07:50:19.668Z,17.53
2018-04-24T07:51:19.690Z,17.55
2018-04-24T07:52:19.705Z,17.79
2018-04-24T07:53:19.733Z,17.54
2018-04-24T07:54:19.760Z,17.67
2018-04-24T07:55:19.782Z,17.92
2018-04-24T07:56:19.810Z,17.81
2018-04-24T07:57:19.832Z,17.55
2018-04-24T07:58:19.871Z,17.43
2018-04-24T07:59:19.897Z,17.54
2018-04-24T08:00:19.902Z,17.57
2018-04-24T08:01:19.920Z,17.84
2018-04-24T08:02:19.944Z,17.84
2018-04-24T08:03:19.971Z,17.74
2018-04-24T08:04:19.989Z,17.95
2018-04-24T08:05:20.026Z,18.15
2018-04-24T08:06:20.049Z,18.17
2018-04-24T08:07:20.064Z,18.21
2018-04-24T08:08:20.171Z,18.25
2018-04-24T08:09:20.116Z,18.29
2018-04-24T08:10:20.146Z,18.17
2018-04-24T08:11:20.159Z,18.22
2018-04-24T08:12:20.195Z,18.29
2018-04-24T08:13:20.202Z,18.37
2018-04-24T08:14:20.229Z,18.43
2018-04-24T08:15:20.259Z,18.42
2018-04-24T08:16:20.289Z,18.29
2018-04-24T08:17:20.300Z,18.43
2018-04-24T08:18:20.331Z,18.43
2018-04-24T08:19:20.350Z,17.99
2018-04-24T08:20:20.372Z,17.81
2018-04-24T08:21:20.395Z,17.63
2018-04-24T08:22:20.421Z,17.70
2018-04-24T08:23:20.445Z,17.74
2018-04-24T08:24:20.473Z,17.74
2018-04-24T08:25:20.497Z,17.79
2018-04-24T08:26:20.518Z,17.94
2018-04-24T08:27:20.550Z,17.95
2018-04-24T08:28:20.570Z,17.99
2018-04-24T08:29:20.588Z,18.33
2018-04-24T08:30:20.616Z,18.31
2018-04-24T08:31:20.641Z,17.85
2018-04-24T08:32:20.662Z,17.94
2018-04-24T08:33:20.710Z,18.18
2018-04-24T08:34:20.725Z,18.36
2018-04-24T08:35:20.736Z,18.54
2018-04-24T08:36:20.768Z,18.34
2018-04-24T08:37:20.789Z,18.55
2018-04-24T08:38:20.806Z,18.55
2018-04-24T08:39:20.832Z,18.79
2018-04-24T08:40:20.860Z,18.68
2018-04-24T08:41:20.882Z,18.49
2018-04-24T08:42:20.918Z,18.34
2018-04-24T08:43:20.934Z,18.27
2018-04-24T08:44:20.955Z,18.31
2018-04-24T08:45:21.009Z,18.28
2018-04-24T08:46:21.004Z,18.31
2018-04-24T08:47:21.029Z,18.55
2018-04-24T08:48:21.054Z,18.33
2018-04-24T08:49:21.100Z,18.36
2018-04-24T08:50:21.101Z,18.39
2018-04-24T08:51:21.126Z,18.64
2018-04-24T08:52:21.149Z,18.62
2018-04-24T08:53:21.170Z,18.64
2018-04-24T08:54:21.207Z,18.39
2018-04-24T08:55:21.219Z,18.40
2018-04-24T08:56:21.254Z,18.55
2018-04-24T08:57:21.285Z,18.76
2018-04-24T08:58:21.300Z,18.31
2018-04-24T08:59:21.317Z,18.40
2018-04-24T09:00:21.342Z,18.33
2018-04-24T09:01:21.374Z,18.29
2018-04-24T09:02:21.396Z,18.21
2018-04-24T09:03:21.425Z,18.25
2018-04-24T09:04:21.448Z,18.37
2018-04-24T09:05:21.467Z,18.57
2018-04-24T09:06:21.490Z,18.54
2018-04-24T09:07:21.513Z,18.65
2018-04-24T09:08:21.540Z,18.67
2018-04-24T09:09:21.583Z,18.50
2018-04-24T09:10:21.617Z,18.54
2018-04-24T09:11:21.613Z,18.70
2018-04-24T09:12:21.638Z,18.49
2018-04-24T09:13:21.663Z,18.42
2018-04-24T09:14:21.682Z,18.47
2018-04-24T09:15:21.747Z,18.61
2018-04-24T09:16:21.731Z,18.58
2018-04-24T09:17:21.762Z,18.57
2018-04-24T09:18:21.791Z,18.76
2018-04-24T09:19:21.810Z,18.84
2018-04-24T09:20:21.832Z,18.76
2018-04-24T09:21:21.858Z,18.80
2018-04-24T09:22:21.926Z,18.94
2018-04-24T09:23:21.907Z,18.72
2018-04-24T09:24:21.931Z,18.73
2018-04-24T09:25:21.956Z,18.59
2018-04-24T09:26:21.978Z,18.79
2018-04-24T09:27:22.016Z,18.74
2018-04-24T09:28:22.025Z,18.67
2018-04-24T09:29:22.052Z,18.79
2018-04-24T09:30:22.077Z,18.92
2018-04-24T09:31:22.101Z,18.73
2018-04-24T09:32:22.124Z,18.83
2018-04-24T09:33:22.153Z,18.84
2018-04-24T09:34:22.176Z,18.84
2018-04-24T09:35:22.198Z,19.24
2018-04-24T09:36:22.224Z,19.24
2018-04-24T09:37:22.246Z,19.21
2018-04-24T09:38:22.271Z,19.20
2018-04-24T09:39:22.301Z,19.21
2018-04-24T09:40:22.323Z,19.10
2018-04-24T09:41:22.351Z,19.23
2018-04-24T09:42:22.378Z,19.29
2018-04-24T09:43:22.399Z,19.24
2018-04-24T09:44:22.423Z,19.14
2018-04-24T09:45:22.461Z,18.86
2018-04-24T09:46:22.467Z,19.10
2018-04-24T09:47:22.521Z,19.23
2018-04-24T09:48:22.523Z,19.42
2018-04-24T09:49:22.561Z,19.66
2018-04-24T09:50:22.573Z,19.63
2018-04-24T09:51:22.601Z,19.43
2018-04-24T09:52:22.620Z,19.57
2018-04-24T09:53:22.643Z,19.75
2018-04-24T09:54:22.667Z,19.46
2018-04-24T09:55:22.691Z,19.65
2018-04-24T09:56:22.725Z,19.70
2018-04-24T09:57:22.752Z,19.57
2018-04-24T09:58:22.766Z,19.63
2018-04-24T09:59:22.797Z,19.54
2018-04-24T10:00:22.824Z,19.54
2018-04-24T10:01:22.845Z,19.63
2018-04-24T10:02:22.871Z,19.78
2018-04-24T10:03:22.898Z,19.43
2018-04-24T10:04:22.923Z,19.10
2018-04-24T10:05:22.944Z,19.08
2018-04-24T10:06:22.977Z,19.13
2018-04-24T10:07:22.995Z,19.01
2018-04-24T10:08:23.025Z,19.25
2018-04-24T10:09:23.044Z,18.99
2018-04-24T10:10:23.067Z,19.13
2018-04-24T10:11:23.100Z,19.24
2018-04-24T10:12:23.123Z,19.43
2018-04-24T10:13:23.152Z,19.36
2018-04-24T10:14:23.184Z,19.65
2018-04-24T10:15:23.199Z,19.95
2018-04-24T10:16:23.227Z,19.86
2018-04-24T10:17:23.249Z,19.63
2018-04-24T10:18:23.270Z,19.33
2018-04-24T10:19:23.306Z,19.70
2018-04-24T10:20:23.327Z,19.83
2018-04-24T10:21:23.348Z,19.54
2018-04-24T10:22:23.377Z,19.68
2018-04-24T10:23:23.401Z,19.80
2018-04-24T10:24:23.491Z,19.86
2018-04-24T10:25:23.446Z,19.78
2018-04-24T10:26:23.481Z,19.78
2018-04-24T10:27:23.508Z,19.60
2018-04-24T10:28:23.528Z,19.68
2018-04-24T10:29:23.552Z,19.80
2018-04-24T10:30:23.583Z,19.53
2018-04-24T10:31:23.605Z,19.73
2018-04-24T10:32:23.628Z,19.42
2018-04-24T10:33:23.657Z,19.61
2018-04-24T10:34:23.682Z,19.72
2018-04-24T10:35:23.706Z,19.93
2018-04-24T10:36:23.731Z,19.93
2018-04-24T10:37:23.762Z,19.90
2018-04-24T10:38:23.783Z,19.93
2018-04-24T10:39:23.812Z,19.76
2018-04-24T10:40:23.835Z,19.83
2018-04-24T10:41:23.866Z,20.12
2018-04-24T10:42:23.879Z,20.23
2018-04-24T10:43:23.911Z,20.08
2018-04-24T10:44:23.936Z,20.20
2018-04-24T10:45:23.960Z,20.38
2018-04-24T10:46:23.992Z,20.38
2018-04-24T10:47:24.013Z,20.42
2018-04-24T10:48:24.050Z,20.18
2018-04-24T10:49:24.066Z,19.95
2018-04-24T10:50:24.090Z,20.05
2018-04-24T10:51:24.222Z,19.90
2018-04-24T10:52:24.141Z,19.90
2018-04-24T10:53:24.159Z,19.88
2018-04-24T10:54:24.222Z,20.02
2018-04-24T10:55:24.218Z,20.15
2018-04-24T10:56:24.247Z,20.05
2018-04-24T10:57:24.272Z,20.05
2018-04-24T10:58:24.293Z,19.93
2018-04-24T10:59:24.391Z,20.02
2018-04-24T11:00:24.344Z,19.88
2018-04-24T11:01:24.389Z,19.93
2018-04-24T11:02:24.398Z,19.98
2018-04-24T11:03:24.430Z,20.24
2018-04-24T11:04:24.477Z,20.46
2018-04-24T11:05:24.479Z,20.47
2018-04-24T11:06:24.506Z,20.43
2018-04-24T11:07:24.532Z,20.16
2018-04-24T11:08:24.564Z,20.24
2018-04-24T11:09:24.577Z,19.78
2018-04-24T11:10:24.609Z,19.72
2018-04-24T11:11:24.640Z,19.94
2018-04-24T11:12:24.652Z,19.98
2018-04-24T11:13:24.687Z,20.42
2018-04-24T11:14:24.706Z,20.51
2018-04-24T11:15:24.738Z,20.50
2018-04-24T11:16:24.763Z,20.54
2018-04-24T11:17:24.790Z,20.42
2018-04-24T11:18:24.815Z,20.42
2018-04-24T11:19:24.845Z,20.41
2018-04-24T11:20:24.865Z,20.54
2018-04-24T11:21:24.952Z,20.56
2018-04-24T11:22:24.920Z,20.56
2018-04-24T11:23:24.953Z,20.24
2018-04-24T11:24:24.971Z,20.34
2018-04-24T11:25:24.991Z,20.56
2018-04-24T11:26:25.147Z,20.58
2018-04-24T11:27:25.046Z,20.35
2018-04-24T11:28:25.076Z,20.35
2018-04-24T11:29:25.102Z,20.61
2018-04-24T11:30:25.143Z,20.79
2018-04-24T11:31:25.152Z,20.74
2018-04-24T11:32:25.229Z,20.84
2018-04-24T11:33:25.206Z,20.91
2018-04-24T11:34:25.260Z,21.19
2018-04-24T11:35:25.274Z,21.32
2018-04-24T11:36:25.283Z,21.45
2018-04-24T11:37:25.316Z,21.27
2018-04-24T11:38:25.337Z,21.23
2018-04-24T11:39:25.364Z,20.99
2018-04-24T11:40:25.400Z,21.14
2018-04-24T11:41:25.488Z,21.23
2018-04-24T11:42:25.439Z,21.39
2018-04-24T11:43:25.471Z,21.51
2018-04-24T11:44:25.494Z,21.51
2018-04-24T11:45:25.529Z,21.60
2018-04-24T11:46:25.574Z,21.57
2018-04-24T11:47:25.572Z,21.61
2018-04-24T11:48:25.612Z,21.41
2018-04-24T11:49:25.630Z,21.61
2018-04-24T11:50:25.654Z,21.64
2018-04-24T11:51:25.684Z,21.78
2018-04-24T11:52:25.706Z,21.75
2018-04-24T11:53:25.732Z,21.91
2018-04-24T11:54:25.761Z,21.71
2018-04-24T11:55:25.795Z,21.91
2018-04-24T11:56:25.822Z,21.97
2018-04-24T11:57:25.840Z,21.59
2018-04-24T11:58:25.865Z,21.69
2018-04-24T11:59:25.894Z,21.82
2018-04-24T12:00:25.923Z,21.92
2018-04-24T12:01:25.948Z,21.82
2018-04-24T12:02:25.978Z,22.19
2018-04-24T12:03:26.017Z,21.59
2018-04-24T12:04:26.033Z,21.60
2018-04-24T12:05:26.061Z,21.75
2018-04-24T12:06:26.090Z,21.78
2018-04-24T12:07:26.115Z,21.83
2018-04-24T12:08:26.139Z,21.45
2018-04-24T12:09:26.172Z,21.67
2018-04-24T12:10:26.194Z,21.71
2018-04-24T12:11:26.222Z,21.74
2018-04-24T12:12:26.247Z,21.71
2018-04-24T12:13:26.279Z,21.71
2018-04-24T12:14:26.310Z,21.88
2018-04-24T12:15:26.334Z,22.06
2018-04-24T12:16:26.357Z,21.99
2018-04-24T12:17:26.380Z,22.02
2018-04-24T12:18:26.407Z,21.83
2018-04-24T12:19:26.468Z,21.97
2018-04-24T12:20:26.473Z,22.13
2018-04-24T12:21:26.493Z,22.17
2018-04-24T12:22:26.519Z,22.41
2018-04-24T12:23:26.551Z,22.23
2018-04-24T12:24:26.659Z,22.14
2018-04-24T12:25:26.606Z,21.95
2018-04-24T12:26:26.632Z,22.37
2018-04-24T12:27:26.657Z,22.60
2018-04-24T12:28:26.693Z,22.82
2018-04-24T12:29:26.716Z,22.54
2018-04-24T12:30:26.830Z,22.34
2018-04-24T12:31:26.775Z,22.41
2018-04-24T12:32:26.798Z,22.46
2018-04-24T12:33:26.819Z,22.27
2018-04-24T12:34:26.854Z,22.49
2018-04-24T12:35:26.879Z,22.80
2018-04-24T12:36:26.905Z,22.83
2018-04-24T12:37:26.936Z,22.78
2018-04-24T12:38:26.960Z,22.83
2018-04-24T12:39:26.994Z,23.12
2018-04-24T12:40:27.016Z,23.05
2018-04-24T12:41:27.042Z,23.31
2018-04-24T12:42:27.073Z,23.57
2018-04-24T12:43:27.110Z,23.53
2018-04-24T12:44:27.130Z,23.40
2018-04-24T12:45:27.158Z,23.11
2018-04-24T12:46:27.187Z,23.34
2018-04-24T12:47:27.210Z,23.35
2018-04-24T12:48:27.251Z,23.29
2018-04-24T12:49:27.275Z,23.35
2018-04-24T12:50:27.306Z,23.40
2018-04-24T12:51:27.331Z,23.90
2018-04-24T12:52:27.355Z,24.04